Joffre, Pennsylvania
Current Conditions -  °F | °C
As of 6:51 PM on Wednesday 26 Nov 2014 (Local Time) from KPIT Reporting Station
Haze Haze  
Wind Chill: -2°   Ceiling: 600
Heat Index:   Visibility: 3mi
Dew Point: -1°   Wind: 6mph
Humidity: 92%   Direction: 320°NW
Pressure: 30.01"   Gusts: NA
Location:  40.38°N, 80.36°W
Report Text: KPIT 262351Z 32005KT 3SM BR BKN006 OVC011 01/M01 A3001 RMK AO2 SNE33 SLP181 P0000 60001 T00061006 10006 20000 51001
Loading
Personal Weather Stations






























Interactive Weather Map New forecast layout! Learn more

10-Day Weather Forecast

Advertisements
Track Severe Weather on mobile